sensor_id;sensor_type;location;lat;lon;timestamp;temperature;humidity
1455;DHT22;721;48.168;12.818;2022-10-23T00:00:57;11.50;49.70
1455;DHT22;721;48.168;12.818;2022-10-23T00:03:23;11.60;48.00
1455;DHT22;721;48.168;12.818;2022-10-23T00:05:50;11.60;46.90
1455;DHT22;721;48.168;12.818;2022-10-23T00:08:19;11.70;44.60
1455;DHT22;721;48.168;12.818;2022-10-23T00:10:46;11.60;44.40
1455;DHT22;721;48.168;12.818;2022-10-23T00:13:13;11.70;44.10
1455;DHT22;721;48.168;12.818;2022-10-23T00:15:40;11.70;43.70
1455;DHT22;721;48.168;12.818;2022-10-23T00:18:06;11.70;43.30
1455;DHT22;721;48.168;12.818;2022-10-23T00:20:33;11.70;43.40
1455;DHT22;721;48.168;12.818;2022-10-23T00:23:00;11.50;44.60
1455;DHT22;721;48.168;12.818;2022-10-23T00:25:28;11.50;45.00
1455;DHT22;721;48.168;12.818;2022-10-23T00:27:56;11.50;43.80
1455;DHT22;721;48.168;12.818;2022-10-23T00:30:26;11.50;43.40
1455;DHT22;721;48.168;12.818;2022-10-23T00:32:55;11.40;44.50
1455;DHT22;721;48.168;12.818;2022-10-23T00:35:22;11.30;45.40
1455;DHT22;721;48.168;12.818;2022-10-23T00:37:49;11.30;46.10
1455;DHT22;721;48.168;12.818;2022-10-23T00:40:16;11.30;46.30
1455;DHT22;721;48.168;12.818;2022-10-23T00:42:45;11.40;44.30
1455;DHT22;721;48.168;12.818;2022-10-23T00:45:22;11.30;44.80
1455;DHT22;721;48.168;12.818;2022-10-23T00:47:51;11.20;47.00
1455;DHT22;721;48.168;12.818;2022-10-23T00:50:21;11.30;45.40
1455;DHT22;721;48.168;12.818;2022-10-23T00:52:51;11.20;45.80
1455;DHT22;721;48.168;12.818;2022-10-23T00:55:20;11.10;47.50
1455;DHT22;721;48.168;12.818;2022-10-23T00:57:50;11.10;47.30
1455;DHT22;721;48.168;12.818;2022-10-23T01:00:22;11.20;46.70
1455;DHT22;721;48.168;12.818;2022-10-23T01:02:51;11.20;46.20
1455;DHT22;721;48.168;12.818;2022-10-23T01:05:21;11.10;46.70
1455;DHT22;721;48.168;12.818;2022-10-23T01:07:53;11.00;47.70
1455;DHT22;721;48.168;12.818;2022-10-23T01:10:28;11.00;47.30
1455;DHT22;721;48.168;12.818;2022-10-23T01:13:03;11.00;48.60
1455;DHT22;721;48.168;12.818;2022-10-23T01:15:36;11.00;47.00
1455;DHT22;721;48.168;12.818;2022-10-23T01:18:09;10.90;49.40
1455;DHT22;721;48.168;12.818;2022-10-23T01:20:42;10.90;49.40
1455;DHT22;721;48.168;12.818;2022-10-23T01:23:31;10.80;50.60
1455;DHT22;721;48.168;12.818;2022-10-23T01:29:08;11.10;46.20
1455;DHT22;721;48.168;12.818;2022-10-23T01:31:40;10.90;47.40
1455;DHT22;721;48.168;12.818;2022-10-23T01:34:22;10.90;47.90
1455;DHT22;721;48.168;12.818;2022-10-23T01:36:53;11.00;47.70
1455;DHT22;721;48.168;12.818;2022-10-23T01:39:26;11.00;44.60
1455;DHT22;721;48.168;12.818;2022-10-23T01:41:56;10.90;45.10
1455;DHT22;721;48.168;12.818;2022-10-23T01:44:30;10.90;44.90
1455;DHT22;721;48.168;12.818;2022-10-23T01:47:03;10.80;44.30
1455;DHT22;721;48.168;12.818;2022-10-23T01:49:35;10.70;45.40
1455;DHT22;721;48.168;12.818;2022-10-23T01:52:06;10.70;43.20
1455;DHT22;721;48.168;12.818;2022-10-23T01:54:39;10.60;43.40
1455;DHT22;721;48.168;12.818;2022-10-23T01:57:11;10.60;45.00
1455;DHT22;721;48.168;12.818;2022-10-23T01:59:44;10.60;45.70
1455;DHT22;721;48.168;12.818;2022-10-23T02:02:14;10.60;45.70
1455;DHT22;721;48.168;12.818;2022-10-23T02:04:46;10.40;46.80
1455;DHT22;721;48.168;12.818;2022-10-23T02:07:13;10.30;48.60
1455;DHT22;721;48.168;12.818;2022-10-23T02:09:40;10.40;49.70
1455;DHT22;721;48.168;12.818;2022-10-23T02:12:09;10.30;49.40
1455;DHT22;721;48.168;12.818;2022-10-23T02:14:44;10.40;48.00
1455;DHT22;721;48.168;12.818;2022-10-23T02:17:20;10.20;50.00
1455;DHT22;721;48.168;12.818;2022-10-23T02:19:55;10.40;47.80
1455;DHT22;721;48.168;12.818;2022-10-23T02:22:27;10.50;42.20
1455;DHT22;721;48.168;12.818;2022-10-23T02:24:59;10.30;42.00
1455;DHT22;721;48.168;12.818;2022-10-23T02:27:32;10.30;45.40
1455;DHT22;721;48.168;12.818;2022-10-23T02:30:04;10.30;43.40
1455;DHT22;721;48.168;12.818;2022-10-23T02:32:33;10.10;44.40
1455;DHT22;721;48.168;12.818;2022-10-23T02:35:01;10.10;45.60
1455;DHT22;721;48.168;12.818;2022-10-23T02:37:28;10.10;44.00
1455;DHT22;721;48.168;12.818;2022-10-23T02:39:55;10.20;45.90
1455;DHT22;721;48.168;12.818;2022-10-23T02:42:25;10.30;42.70
1455;DHT22;721;48.168;12.818;2022-10-23T02:45:01;10.30;40.60
1455;DHT22;721;48.168;12.818;2022-10-23T02:47:43;10.30;38.90
1455;DHT22;721;48.168;12.818;2022-10-23T02:50:20;10.10;41.20
1455;DHT22;721;48.168;12.818;2022-10-23T02:52:55;10.10;42.90
1455;DHT22;721;48.168;12.818;2022-10-23T02:55:33;10.00;43.50
1455;DHT22;721;48.168;12.818;2022-10-23T02:58:07;9.80;45.80
1455;DHT22;721;48.168;12.818;2022-10-23T03:00:37;10.00;41.10
1455;DHT22;721;48.168;12.818;2022-10-23T03:03:10;9.90;42.50
1455;DHT22;721;48.168;12.818;2022-10-23T03:05:40;9.90;43.20
1455;DHT22;721;48.168;12.818;2022-10-23T03:08:11;9.70;44.20
1455;DHT22;721;48.168;12.818;2022-10-23T03:10:38;9.80;45.90
1455;DHT22;721;48.168;12.818;2022-10-23T03:13:06;10.00;40.70
1455;DHT22;721;48.168;12.818;2022-10-23T03:15:34;10.00;37.30
1455;DHT22;721;48.168;12.818;2022-10-23T03:18:01;10.10;35.50
1455;DHT22;721;48.168;12.818;2022-10-23T03:20:29;10.10;34.40
1455;DHT22;721;48.168;12.818;2022-10-23T03:22:56;9.70;40.70
1455;DHT22;721;48.168;12.818;2022-10-23T03:25:23;9.70;39.20
1455;DHT22;721;48.168;12.818;2022-10-23T03:27:50;9.80;39.30
1455;DHT22;721;48.168;12.818;2022-10-23T03:30:17;9.60;38.60
1455;DHT22;721;48.168;12.818;2022-10-23T03:35:12;9.50;40.80
1455;DHT22;721;48.168;12.818;2022-10-23T03:37:40;9.30;40.70
1455;DHT22;721;48.168;12.818;2022-10-23T03:40:08;9.30;40.70
1455;DHT22;721;48.168;12.818;2022-10-23T03:42:35;9.20;39.70
1455;DHT22;721;48.168;12.818;2022-10-23T03:45:02;9.10;42.70
1455;DHT22;721;48.168;12.818;2022-10-23T03:47:29;8.90;47.40
1455;DHT22;721;48.168;12.818;2022-10-23T03:49:59;9.10;45.50
1455;DHT22;721;48.168;12.818;2022-10-23T03:52:26;9.10;45.30
1455;DHT22;721;48.168;12.818;2022-10-23T03:54:54;9.10;46.90
1455;DHT22;721;48.168;12.818;2022-10-23T03:57:21;9.10;47.40
1455;DHT22;721;48.168;12.818;2022-10-23T03:59:49;9.20;47.40
1455;DHT22;721;48.168;12.818;2022-10-23T04:02:16;9.30;45.60
1455;DHT22;721;48.168;12.818;2022-10-23T04:04:43;9.40;41.40
1455;DHT22;721;48.168;12.818;2022-10-23T04:07:10;9.40;42.40
1455;DHT22;721;48.168;12.818;2022-10-23T04:09:37;9.50;40.10
1455;DHT22;721;48.168;12.818;2022-10-23T04:12:07;9.30;41.20
1455;DHT22;721;48.168;12.818;2022-10-23T04:14:34;9.40;39.30
1455;DHT22;721;48.168;12.818;2022-10-23T04:17:01;9.30;39.80
1455;DHT22;721;48.168;12.818;2022-10-23T04:19:27;9.30;39.50
1455;DHT22;721;48.168;12.818;2022-10-23T04:21:55;9.30;40.70
1455;DHT22;721;48.168;12.818;2022-10-23T04:24:22;9.10;41.50
1455;DHT22;721;48.168;12.818;2022-10-23T04:26:51;9.10;42.70
1455;DHT22;721;48.168;12.818;2022-10-23T04:29:20;8.90;44.20
1455;DHT22;721;48.168;12.818;2022-10-23T04:31:49;8.80;49.00
1455;DHT22;721;48.168;12.818;2022-10-23T04:34:16;8.80;51.80
1455;DHT22;721;48.168;12.818;2022-10-23T04:36:43;8.80;51.10
1455;DHT22;721;48.168;12.818;2022-10-23T04:39:10;8.70;53.10
1455;DHT22;721;48.168;12.818;2022-10-23T04:41:37;8.70;54.30
1455;DHT22;721;48.168;12.818;2022-10-23T04:44:04;8.60;54.30
1455;DHT22;721;48.168;12.818;2022-10-23T04:46:33;8.60;53.20
1455;DHT22;721;48.168;12.818;2022-10-23T04:48:59;8.60;51.70
1455;DHT22;721;48.168;12.818;2022-10-23T04:51:27;8.60;52.80
1455;DHT22;721;48.168;12.818;2022-10-23T04:53:54;8.50;54.20
1455;DHT22;721;48.168;12.818;2022-10-23T04:56:20;8.30;56.70
1455;DHT22;721;48.168;12.818;2022-10-23T04:58:47;8.40;58.20
1455;DHT22;721;48.168;12.818;2022-10-23T05:01:14;8.50;57.80
1455;DHT22;721;48.168;12.818;2022-10-23T05:03:43;8.60;58.30
1455;DHT22;721;48.168;12.818;2022-10-23T05:06:09;8.50;56.10
1455;DHT22;721;48.168;12.818;2022-10-23T05:08:36;8.40;58.00
1455;DHT22;721;48.168;12.818;2022-10-23T05:11:04;8.50;56.80
1455;DHT22;721;48.168;12.818;2022-10-23T05:13:30;8.40;58.00
1455;DHT22;721;48.168;12.818;2022-10-23T05:15:58;8.50;54.70
1455;DHT22;721;48.168;12.818;2022-10-23T05:18:28;8.40;56.20
1455;DHT22;721;48.168;12.818;2022-10-23T05:21:02;8.30;58.60
1455;DHT22;721;48.168;12.818;2022-10-23T05:23:31;8.30;57.70
1455;DHT22;721;48.168;12.818;2022-10-23T05:26:00;8.20;58.20
1455;DHT22;721;48.168;12.818;2022-10-23T05:28:28;8.10;58.60
1455;DHT22;721;48.168;12.818;2022-10-23T05:31:00;8.00;60.00
1455;DHT22;721;48.168;12.818;2022-10-23T05:33:28;8.00;60.00
1455;DHT22;721;48.168;12.818;2022-10-23T05:35:56;8.00;60.00
1455;DHT22;721;48.168;12.818;2022-10-23T05:38:25;8.10;59.40
1455;DHT22;721;48.168;12.818;2022-10-23T05:40:53;8.10;59.60
1455;DHT22;721;48.168;12.818;2022-10-23T05:43:22;8.10;58.80
1455;DHT22;721;48.168;12.818;2022-10-23T05:45:51;8.10;59.70
1455;DHT22;721;48.168;12.818;2022-10-23T05:48:18;8.10;58.40
1455;DHT22;721;48.168;12.818;2022-10-23T05:50:45;8.20;57.00
1455;DHT22;721;48.168;12.818;2022-10-23T05:53:14;8.20;57.80
1455;DHT22;721;48.168;12.818;2022-10-23T05:55:42;8.10;59.80
1455;DHT22;721;48.168;12.818;2022-10-23T05:58:09;8.20;58.60
1455;DHT22;721;48.168;12.818;2022-10-23T06:00:36;8.30;58.90
1455;DHT22;721;48.168;12.818;2022-10-23T06:03:03;8.20;59.70
1455;DHT22;721;48.168;12.818;2022-10-23T06:05:30;8.30;58.60
1455;DHT22;721;48.168;12.818;2022-10-23T06:07:57;8.30;60.40
1455;DHT22;721;48.168;12.818;2022-10-23T06:10:25;8.50;58.80
1455;DHT22;721;48.168;12.818;2022-10-23T06:12:53;8.40;60.60
1455;DHT22;721;48.168;12.818;2022-10-23T06:15:23;8.30;64.50
1455;DHT22;721;48.168;12.818;2022-10-23T06:17:50;8.40;62.50
1455;DHT22;721;48.168;12.818;2022-10-23T06:20:17;8.40;63.00
1455;DHT22;721;48.168;12.818;2022-10-23T06:22:44;8.30;62.90
1455;DHT22;721;48.168;12.818;2022-10-23T06:25:10;8.30;64.10
1455;DHT22;721;48.168;12.818;2022-10-23T06:27:37;8.30;62.90
1455;DHT22;721;48.168;12.818;2022-10-23T06:30:10;8.30;65.60
1455;DHT22;721;48.168;12.818;2022-10-23T06:32:37;8.30;66.90
1455;DHT22;721;48.168;12.818;2022-10-23T06:35:05;8.50;65.50
1455;DHT22;721;48.168;12.818;2022-10-23T06:37:35;8.40;64.40
1455;DHT22;721;48.168;12.818;2022-10-23T06:40:04;8.50;63.10
1455;DHT22;721;48.168;12.818;2022-10-23T06:42:32;8.40;62.60
1455;DHT22;721;48.168;12.818;2022-10-23T06:44:59;8.40;63.00
1455;DHT22;721;48.168;12.818;2022-10-23T06:47:27;8.30;63.70
1455;DHT22;721;48.168;12.818;2022-10-23T06:49:57;8.30;64.40
1455;DHT22;721;48.168;12.818;2022-10-23T06:52:27;8.20;64.90
1455;DHT22;721;48.168;12.818;2022-10-23T06:54:56;8.20;65.90
1455;DHT22;721;48.168;12.818;2022-10-23T06:57:23;8.50;63.10
1455;DHT22;721;48.168;12.818;2022-10-23T06:59:50;8.40;63.40
1455;DHT22;721;48.168;12.818;2022-10-23T07:02:16;8.40;63.90
1455;DHT22;721;48.168;12.818;2022-10-23T07:04:45;8.50;63.00
1455;DHT22;721;48.168;12.818;2022-10-23T07:07:12;8.50;63.10
1455;DHT22;721;48.168;12.818;2022-10-23T07:09:39;8.60;64.20
1455;DHT22;721;48.168;12.818;2022-10-23T07:12:07;8.50;65.00
1455;DHT22;721;48.168;12.818;2022-10-23T07:14:33;8.50;66.50
1455;DHT22;721;48.168;12.818;2022-10-23T07:17:03;8.50;68.20
1455;DHT22;721;48.168;12.818;2022-10-23T07:19:33;8.60;69.30
1455;DHT22;721;48.168;12.818;2022-10-23T07:22:02;8.60;70.50
1455;DHT22;721;48.168;12.818;2022-10-23T07:24:29;8.60;70.40
1455;DHT22;721;48.168;12.818;2022-10-23T07:27:05;8.90;70.00
1455;DHT22;721;48.168;12.818;2022-10-23T07:29:33;8.90;68.00
1455;DHT22;721;48.168;12.818;2022-10-23T07:32:00;9.00;67.70
1455;DHT22;721;48.168;12.818;2022-10-23T07:34:30;9.00;69.30
1455;DHT22;721;48.168;12.818;2022-10-23T07:36:57;9.00;69.30
1455;DHT22;721;48.168;12.818;2022-10-23T07:39:26;9.00;70.00
1455;DHT22;721;48.168;12.818;2022-10-23T07:41:52;9.10;67.40
1455;DHT22;721;48.168;12.818;2022-10-23T07:44:19;8.90;69.10
1455;DHT22;721;48.168;12.818;2022-10-23T07:46:46;9.10;67.60
1455;DHT22;721;48.168;12.818;2022-10-23T07:49:18;9.10;68.60
1455;DHT22;721;48.168;12.818;2022-10-23T07:51:45;9.30;68.00
1455;DHT22;721;48.168;12.818;2022-10-23T07:54:12;9.40;64.90
1455;DHT22;721;48.168;12.818;2022-10-23T07:56:40;9.30;65.70
1455;DHT22;721;48.168;12.818;2022-10-23T07:59:09;9.30;65.90
1455;DHT22;721;48.168;12.818;2022-10-23T08:01:37;9.40;65.90
1455;DHT22;721;48.168;12.818;2022-10-23T08:04:05;9.40;66.40
1455;DHT22;721;48.168;12.818;2022-10-23T08:06:32;9.40;67.80
1455;DHT22;721;48.168;12.818;2022-10-23T08:08:59;9.40;67.30
1455;DHT22;721;48.168;12.818;2022-10-23T08:11:26;9.40;68.10
1455;DHT22;721;48.168;12.818;2022-10-23T08:14:02;9.50;71.70
1455;DHT22;721;48.168;12.818;2022-10-23T08:16:30;9.80;69.00
1455;DHT22;721;48.168;12.818;2022-10-23T08:18:59;9.80;70.60
1455;DHT22;721;48.168;12.818;2022-10-23T08:21:26;9.80;68.70
1455;DHT22;721;48.168;12.818;2022-10-23T08:23:54;9.90;68.00
1455;DHT22;721;48.168;12.818;2022-10-23T08:26:21;9.90;68.00
1455;DHT22;721;48.168;12.818;2022-10-23T08:28:49;9.90;72.10
1455;DHT22;721;48.168;12.818;2022-10-23T08:31:19;10.00;69.50
1455;DHT22;721;48.168;12.818;2022-10-23T08:33:46;10.00;69.00
1455;DHT22;721;48.168;12.818;2022-10-23T08:36:18;10.10;66.60
1455;DHT22;721;48.168;12.818;2022-10-23T08:38:48;10.00;66.60
1455;DHT22;721;48.168;12.818;2022-10-23T08:41:23;10.10;66.60
1455;DHT22;721;48.168;12.818;2022-10-23T08:43:53;10.00;66.20
1455;DHT22;721;48.168;12.818;2022-10-23T08:46:27;10.00;67.00
1455;DHT22;721;48.168;12.818;2022-10-23T08:49:04;10.20;66.70
1455;DHT22;721;48.168;12.818;2022-10-23T08:51:39;10.30;66.00
1455;DHT22;721;48.168;12.818;2022-10-23T08:54:12;10.40;64.20
1455;DHT22;721;48.168;12.818;2022-10-23T08:56:41;10.50;64.10
1455;DHT22;721;48.168;12.818;2022-10-23T08:59:14;10.50;64.80
1455;DHT22;721;48.168;12.818;2022-10-23T09:01:49;10.70;64.00
1455;DHT22;721;48.168;12.818;2022-10-23T09:04:17;10.70;66.20
1455;DHT22;721;48.168;12.818;2022-10-23T09:06:50;10.60;68.70
1455;DHT22;721;48.168;12.818;2022-10-23T09:09:34;10.80;67.90
1455;DHT22;721;48.168;12.818;2022-10-23T09:12:08;10.90;67.20
1455;DHT22;721;48.168;12.818;2022-10-23T09:15:04;11.00;68.00
1455;DHT22;721;48.168;12.818;2022-10-23T09:17:35;11.10;67.80
1455;DHT22;721;48.168;12.818;2022-10-23T09:20:15;11.10;68.60
1455;DHT22;721;48.168;12.818;2022-10-23T09:22:44;11.20;67.60
1455;DHT22;721;48.168;12.818;2022-10-23T09:25:16;11.40;66.00
1455;DHT22;721;48.168;12.818;2022-10-23T09:27:46;11.50;65.60
1455;DHT22;721;48.168;12.818;2022-10-23T09:30:25;11.60;63.90
1455;DHT22;721;48.168;12.818;2022-10-23T09:32:54;11.60;64.10
1455;DHT22;721;48.168;12.818;2022-10-23T09:35:22;11.80;62.70
1455;DHT22;721;48.168;12.818;2022-10-23T09:37:50;11.90;60.80
1455;DHT22;721;48.168;12.818;2022-10-23T09:40:24;11.90;58.20
1455;DHT22;721;48.168;12.818;2022-10-23T09:42:56;11.90;59.60
1455;DHT22;721;48.168;12.818;2022-10-23T09:45:26;12.10;59.60
1455;DHT22;721;48.168;12.818;2022-10-23T09:48:10;12.20;59.40
1455;DHT22;721;48.168;12.818;2022-10-23T09:50:46;12.30;58.00
1455;DHT22;721;48.168;12.818;2022-10-23T09:53:16;12.40;58.20
1455;DHT22;721;48.168;12.818;2022-10-23T09:55:51;12.50;57.30
1455;DHT22;721;48.168;12.818;2022-10-23T09:58:28;12.60;57.00
1455;DHT22;721;48.168;12.818;2022-10-23T10:00:56;12.70;57.40
1455;DHT22;721;48.168;12.818;2022-10-23T10:03:24;12.80;55.90
1455;DHT22;721;48.168;12.818;2022-10-23T10:05:56;12.90;57.00
1455;DHT22;721;48.168;12.818;2022-10-23T10:08:28;13.10;57.40
1455;DHT22;721;48.168;12.818;2022-10-23T10:11:01;13.20;55.30
1455;DHT22;721;48.168;12.818;2022-10-23T10:16:23;13.40;53.60
1455;DHT22;721;48.168;12.818;2022-10-23T10:19:02;13.40;52.80
1455;DHT22;721;48.168;12.818;2022-10-23T10:21:35;13.50;52.70
1455;DHT22;721;48.168;12.818;2022-10-23T10:24:13;13.60;53.30
1455;DHT22;721;48.168;12.818;2022-10-23T10:26:47;13.60;53.00
1455;DHT22;721;48.168;12.818;2022-10-23T10:29:22;13.80;52.20
1455;DHT22;721;48.168;12.818;2022-10-23T10:32:01;13.80;50.90
1455;DHT22;721;48.168;12.818;2022-10-23T10:34:40;14.00;51.70
1455;DHT22;721;48.168;12.818;2022-10-23T10:37:19;14.00;52.00
1455;DHT22;721;48.168;12.818;2022-10-23T10:39:53;14.30;49.20
1455;DHT22;721;48.168;12.818;2022-10-23T10:42:46;14.50;45.80
1455;DHT22;721;48.168;12.818;2022-10-23T10:45:26;14.50;46.30
1455;DHT22;721;48.168;12.818;2022-10-23T10:48:11;14.70;44.60
1455;DHT22;721;48.168;12.818;2022-10-23T10:50:46;14.90;43.20
1455;DHT22;721;48.168;12.818;2022-10-23T10:53:21;15.00;40.20
1455;DHT22;721;48.168;12.818;2022-10-23T10:55:51;15.20;40.00
1455;DHT22;721;48.168;12.818;2022-10-23T10:58:23;15.40;39.00
1455;DHT22;721;48.168;12.818;2022-10-23T11:00:57;15.60;37.50
1455;DHT22;721;48.168;12.818;2022-10-23T11:03:30;15.90;34.30
1455;DHT22;721;48.168;12.818;2022-10-23T11:06:04;16.10;32.80
1455;DHT22;721;48.168;12.818;2022-10-23T11:08:34;16.10;33.40
1455;DHT22;721;48.168;12.818;2022-10-23T11:11:06;16.20;32.60
1455;DHT22;721;48.168;12.818;2022-10-23T11:13:36;16.30;29.80
1455;DHT22;721;48.168;12.818;2022-10-23T11:16:09;16.50;28.80
1455;DHT22;721;48.168;12.818;2022-10-23T11:18:40;16.60;29.40
1455;DHT22;721;48.168;12.818;2022-10-23T11:21:18;16.70;29.30
1455;DHT22;721;48.168;12.818;2022-10-23T11:27:06;17.00;26.50
1455;DHT22;721;48.168;12.818;2022-10-23T11:29:54;17.40;24.10
1455;DHT22;721;48.168;12.818;2022-10-23T11:32:41;17.60;23.10
1455;DHT22;721;48.168;12.818;2022-10-23T11:35:25;17.50;22.50
1455;DHT22;721;48.168;12.818;2022-10-23T11:37:59;17.70;22.60
1455;DHT22;721;48.168;12.818;2022-10-23T11:40:28;17.80;22.60
1455;DHT22;721;48.168;12.818;2022-10-23T11:42:55;17.70;21.40
1455;DHT22;721;48.168;12.818;2022-10-23T11:45:27;17.80;22.60
1455;DHT22;721;48.168;12.818;2022-10-23T11:47:56;18.00;21.20
1455;DHT22;721;48.168;12.818;2022-10-23T11:50:26;18.20;19.40
1455;DHT22;721;48.168;12.818;2022-10-23T11:52:59;18.10;20.30
1455;DHT22;721;48.168;12.818;2022-10-23T11:55:30;18.20;20.10
1455;DHT22;721;48.168;12.818;2022-10-23T11:58:18;18.10;19.90
1455;DHT22;721;48.168;12.818;2022-10-23T12:00:54;18.20;20.70
1455;DHT22;721;48.168;12.818;2022-10-23T12:03:29;18.20;20.70
1455;DHT22;721;48.168;12.818;2022-10-23T12:05:59;18.30;18.90
1455;DHT22;721;48.168;12.818;2022-10-23T12:08:30;18.30;20.00
1455;DHT22;721;48.168;12.818;2022-10-23T12:10:59;18.60;18.90
1455;DHT22;721;48.168;12.818;2022-10-23T12:13:44;18.70;18.40
1455;DHT22;721;48.168;12.818;2022-10-23T12:16:12;18.80;18.40
1455;DHT22;721;48.168;12.818;2022-10-23T12:18:48;18.90;17.60
1455;DHT22;721;48.168;12.818;2022-10-23T12:21:18;18.80;17.00
1455;DHT22;721;48.168;12.818;2022-10-23T12:23:58;18.80;18.20
1455;DHT22;721;48.168;12.818;2022-10-23T12:26:41;18.80;20.00
1455;DHT22;721;48.168;12.818;2022-10-23T12:29:33;19.00;17.10
1455;DHT22;721;48.168;12.818;2022-10-23T12:32:16;19.10;16.50
1455;DHT22;721;48.168;12.818;2022-10-23T12:34:55;19.20;16.20
1455;DHT22;721;48.168;12.818;2022-10-23T12:37:43;19.10;14.60
1455;DHT22;721;48.168;12.818;2022-10-23T12:40:15;19.00;16.60
1455;DHT22;721;48.168;12.818;2022-10-23T12:42:50;19.20;16.40
1455;DHT22;721;48.168;12.818;2022-10-23T12:45:19;19.20;16.40
1455;DHT22;721;48.168;12.818;2022-10-23T12:47:49;19.10;16.90
1455;DHT22;721;48.168;12.818;2022-10-23T12:50:21;19.10;17.30
1455;DHT22;721;48.168;12.818;2022-10-23T12:52:54;19.20;16.30
1455;DHT22;721;48.168;12.818;2022-10-23T12:55:25;19.30;17.00
1455;DHT22;721;48.168;12.818;2022-10-23T12:57:52;19.40;16.60
1455;DHT22;721;48.168;12.818;2022-10-23T13:00:21;19.60;16.40
1455;DHT22;721;48.168;12.818;2022-10-23T13:02:57;19.70;15.10
1455;DHT22;721;48.168;12.818;2022-10-23T13:05:24;19.80;15.30
1455;DHT22;721;48.168;12.818;2022-10-23T13:07:53;19.90;14.60
1455;DHT22;721;48.168;12.818;2022-10-23T13:10:22;20.10;15.50
1455;DHT22;721;48.168;12.818;2022-10-23T13:12:53;20.30;13.20
1455;DHT22;721;48.168;12.818;2022-10-23T13:15:22;20.40;12.70
1455;DHT22;721;48.168;12.818;2022-10-23T13:18:00;20.60;11.60
1455;DHT22;721;48.168;12.818;2022-10-23T13:20:29;20.80;10.50
1455;DHT22;721;48.168;12.818;2022-10-23T13:23:09;21.10;9.30
1455;DHT22;721;48.168;12.818;2022-10-23T13:25:38;20.90;8.30
1455;DHT22;721;48.168;12.818;2022-10-23T13:28:23;20.50;9.80
1455;DHT22;721;48.168;12.818;2022-10-23T13:31:03;20.20;11.40
1455;DHT22;721;48.168;12.818;2022-10-23T13:33:33;20.20;11.00
1455;DHT22;721;48.168;12.818;2022-10-23T13:36:03;19.80;12.60
1455;DHT22;721;48.168;12.818;2022-10-23T13:38:31;19.70;12.70
1455;DHT22;721;48.168;12.818;2022-10-23T13:41:02;19.60;13.70
1455;DHT22;721;48.168;12.818;2022-10-23T13:43:30;19.60;14.20
1455;DHT22;721;48.168;12.818;2022-10-23T13:45:57;19.60;14.10
1455;DHT22;721;48.168;12.818;2022-10-23T13:48:24;19.70;14.80
1455;DHT22;721;48.168;12.818;2022-10-23T13:50:52;19.80;13.50
1455;DHT22;721;48.168;12.818;2022-10-23T13:53:19;19.80;12.50
1455;DHT22;721;48.168;12.818;2022-10-23T13:55:49;19.80;13.50
1455;DHT22;721;48.168;12.818;2022-10-23T13:58:19;19.90;12.40
1455;DHT22;721;48.168;12.818;2022-10-23T14:00:47;19.90;12.20
1455;DHT22;721;48.168;12.818;2022-10-23T14:03:15;19.90;12.20
1455;DHT22;721;48.168;12.818;2022-10-23T14:05:43;20.00;11.60
1455;DHT22;721;48.168;12.818;2022-10-23T14:08:10;20.00;12.00
1455;DHT22;721;48.168;12.818;2022-10-23T14:10:36;20.20;11.10
1455;DHT22;721;48.168;12.818;2022-10-23T14:13:03;20.30;9.60
1455;DHT22;721;48.168;12.818;2022-10-23T14:15:32;20.30;9.60
1455;DHT22;721;48.168;12.818;2022-10-23T14:17:58;20.30;9.60
1455;DHT22;721;48.168;12.818;2022-10-23T14:20:25;20.30;9.60
1455;DHT22;721;48.168;12.818;2022-10-23T14:22:52;20.00;10.60
1455;DHT22;721;48.168;12.818;2022-10-23T14:25:19;20.00;10.50
1455;DHT22;721;48.168;12.818;2022-10-23T14:27:47;19.80;10.70
1455;DHT22;721;48.168;12.818;2022-10-23T14:30:14;19.70;11.10
1455;DHT22;721;48.168;12.818;2022-10-23T14:32:42;19.60;11.30
1455;DHT22;721;48.168;12.818;2022-10-23T14:35:09;19.50;11.80
1455;DHT22;721;48.168;12.818;2022-10-23T14:37:36;19.50;12.00
1455;DHT22;721;48.168;12.818;2022-10-23T14:40:05;19.40;11.30
1455;DHT22;721;48.168;12.818;2022-10-23T14:42:32;19.30;12.60
1455;DHT22;721;48.168;12.818;2022-10-23T14:45:00;19.20;13.10
1455;DHT22;721;48.168;12.818;2022-10-23T14:47:27;19.00;13.20
1455;DHT22;721;48.168;12.818;2022-10-23T14:49:56;19.00;13.30
1455;DHT22;721;48.168;12.818;2022-10-23T14:52:23;18.90;13.20
1455;DHT22;721;48.168;12.818;2022-10-23T14:54:50;18.80;13.30
1455;DHT22;721;48.168;12.818;2022-10-23T14:57:18;18.70;14.00
1455;DHT22;721;48.168;12.818;2022-10-23T14:59:46;18.70;13.70
1455;DHT22;721;48.168;12.818;2022-10-23T15:02:14;18.60;14.60
1455;DHT22;721;48.168;12.818;2022-10-23T15:04:41;18.50;14.10
1455;DHT22;721;48.168;12.818;2022-10-23T15:07:09;18.40;14.80
1455;DHT22;721;48.168;12.818;2022-10-23T15:09:36;18.10;15.40
1455;DHT22;721;48.168;12.818;2022-10-23T15:12:05;18.00;15.50
1455;DHT22;721;48.168;12.818;2022-10-23T15:14:32;18.10;15.60
1455;DHT22;721;48.168;12.818;2022-10-23T15:16:59;18.00;15.90
1455;DHT22;721;48.168;12.818;2022-10-23T15:19:26;17.90;16.30
1455;DHT22;721;48.168;12.818;2022-10-23T15:21:53;17.90;16.50
1455;DHT22;721;48.168;12.818;2022-10-23T15:24:22;17.90;16.30
1455;DHT22;721;48.168;12.818;2022-10-23T15:26:48;17.70;17.40
1455;DHT22;721;48.168;12.818;2022-10-23T15:29:17;17.70;17.60
1455;DHT22;721;48.168;12.818;2022-10-23T15:31:47;17.60;18.60
1455;DHT22;721;48.168;12.818;2022-10-23T15:34:16;17.40;18.80
1455;DHT22;721;48.168;12.818;2022-10-23T15:36:44;17.50;19.10
1455;DHT22;721;48.168;12.818;2022-10-23T15:39:14;17.40;18.90
1455;DHT22;721;48.168;12.818;2022-10-23T15:41:43;17.40;19.10
1455;DHT22;721;48.168;12.818;2022-10-23T15:44:12;17.40;19.20
1455;DHT22;721;48.168;12.818;2022-10-23T15:46:39;17.20;20.10
1455;DHT22;721;48.168;12.818;2022-10-23T15:49:07;17.20;20.60
1455;DHT22;721;48.168;12.818;2022-10-23T15:51:37;17.10;20.70
1455;DHT22;721;48.168;12.818;2022-10-23T15:54:05;16.90;22.10
1455;DHT22;721;48.168;12.818;2022-10-23T15:56:33;16.80;23.00
1455;DHT22;721;48.168;12.818;2022-10-23T15:59:01;16.90;22.40
1455;DHT22;721;48.168;12.818;2022-10-23T16:01:28;16.90;22.00
1455;DHT22;721;48.168;12.818;2022-10-23T16:03:55;16.90;22.00
1455;DHT22;721;48.168;12.818;2022-10-23T16:06:22;16.80;22.30
1455;DHT22;721;48.168;12.818;2022-10-23T16:08:49;16.70;23.00
1455;DHT22;721;48.168;12.818;2022-10-23T16:11:18;16.80;22.50
1455;DHT22;721;48.168;12.818;2022-10-23T16:13:45;16.70;22.60
1455;DHT22;721;48.168;12.818;2022-10-23T16:16:14;16.80;22.50
1455;DHT22;721;48.168;12.818;2022-10-23T16:18:41;16.80;22.10
1455;DHT22;721;48.168;12.818;2022-10-23T16:21:16;16.70;22.60
1455;DHT22;721;48.168;12.818;2022-10-23T16:23:44;16.60;22.80
1455;DHT22;721;48.168;12.818;2022-10-23T16:26:11;16.60;22.50
1455;DHT22;721;48.168;12.818;2022-10-23T16:28:38;16.50;23.50
1455;DHT22;721;48.168;12.818;2022-10-23T16:31:08;16.50;23.40
1455;DHT22;721;48.168;12.818;2022-10-23T16:33:37;16.50;23.50
1455;DHT22;721;48.168;12.818;2022-10-23T16:36:05;16.40;23.40
1455;DHT22;721;48.168;12.818;2022-10-23T16:38:33;16.30;23.90